KVBG/VBG METAR and TAF weather

Enter ICAO airport designator
Station Type Date Time Source
KVBG METAR 2021/02/25 01:58 UTC NOAA

KVBG 250158Z AUTO 02010KT 5SM HZ CLR 12/08 A3005 RMK AO2 SLPNO T01150076 TSNO


Station Type Date Time Source
KVBG Decoded METAR 2021/02/25 01:58 UTC NOAA

Lompoc, Vandenberg Air Force Base, CA, United States (KVBG) 34-43-46N 120-34-36W 121M
Feb 24, 2021 - 08:58 PM EST / 2021.02.25 0158 UTC
Wind: from the NNE (020 degrees) at 12 MPH (10 KT):0
Visibility: 5 mile(s):0
Sky conditions: clear
Weather: haze
Temperature: 52.7 F (11.5 C)
Dew Point: 45.7 F (7.6 C)
Relative Humidity: 76%
Pressure (altimeter): 30.05 in. Hg (1017 hPa)
ob: KVBG 250158Z AUTO 02010KT 5SM HZ CLR 12/08 A3005 RMK AO2 SLPNO T01150076 TSNO
cycle: 2

Station Type Date Time Source
KVBG TAF 2021/02/24 23:12 UTC NOAA

TAF KVBG 242300Z 2423/2605 35012G20KT 9999 SKC 510006 QNH3006INS
BECMG 2502/2503 03012KT 9999 SKC QNH3008INS
BECMG 2509/2510 08009KT 9999 SKC QNH3013INS
BECMG 2519/2520 34014KT 9999 SKC QNH3014INS
BECMG 2601/2602 36009KT 9999 FEW300 QNH3013INS TX20/2522Z TN07/2515Z LAST NO
AMDS AFT 2501 NEXT 2515

Example: see airport list